Time;durP1;ratioP1;P1;durP2;ratioP2;P2;SDS_P1;SDS_P2;PMS_P1;PMS_P2;Temp;Humidity;BMP_temperature;BMP_pressure;BME280_temperature;BME280_humidity;BME280_pressure;Samples;Min_cycle;Max_cycle;Signal;HPM_P1;HPM_P2
2022/12/08 00:01:41;;;;;;;26.52;23.73;;;;;;;2.81;100.00;101084.00;5028588;28;20065;-84
2022/12/08 00:04:07;;;;;;;27.25;24.35;;;;;;;2.82;100.00;101072.72;5024967;28;20048;-85
2022/12/08 00:09:48;;;;;;;28.85;25.30;;;;;;;2.84;100.00;101072.66;5024589;28;20079;-87
2022/12/08 00:12:15;;;;;;;31.55;26.85;;;;;;;2.80;100.00;101077.13;5019290;28;20356;-85
2022/12/08 00:14:43;;;;;;;30.95;27.45;;;;;;;2.77;100.00;101065.97;5012145;28;20037;-86
2022/12/08 00:17:11;;;;;;;33.38;28.40;;;;;;;2.76;100.00;101056.47;5024430;28;20033;-85
2022/12/08 00:19:38;;;;;;;33.95;30.25;;;;;;;2.76;100.00;101049.53;5022672;28;20025;-84
2022/12/08 00:22:08;;;;;;;34.38;29.95;;;;;;;2.74;100.00;101051.34;5010128;28;20025;-80
2022/12/08 00:24:38;;;;;;;36.40;31.15;;;;;;;2.76;100.00;101046.94;5008709;28;20021;-80
2022/12/08 00:27:04;;;;;;;35.95;32.15;;;;;;;2.79;100.00;101045.97;5009318;28;20022;-81
2022/12/08 00:29:30;;;;;;;36.60;31.55;;;;;;;2.74;100.00;101029.72;5001642;28;20133;-80
2022/12/08 00:31:55;;;;;;;37.83;32.55;;;;;;;2.73;100.00;101038.41;5010404;28;20121;-82
2022/12/08 00:34:20;;;;;;;37.80;32.70;;;;;;;2.72;100.00;101034.13;5010865;28;20033;-80
2022/12/08 00:36:46;;;;;;;37.50;33.35;;;;;;;2.75;100.00;101031.41;5034425;28;20477;-82
2022/12/08 00:39:13;;;;;;;40.90;34.55;;;;;;;2.74;100.00;101035.75;5029158;28;20068;-81
2022/12/08 00:44:22;;;;;;;41.67;34.72;;;;;;;2.76;100.00;101027.91;5009847;28;20088;-81
2022/12/08 00:46:48;;;;;;;42.42;36.08;;;;;;;2.76;100.00;101022.69;5013776;28;20022;-81
2022/12/08 00:49:14;;;;;;;41.15;36.75;;;;;;;2.76;100.00;101022.69;5016089;28;20478;-81
2022/12/08 00:51:41;;;;;;;43.10;38.38;;;;;;;2.79;100.00;101022.59;5029072;28;20037;-80
2022/12/08 00:54:07;;;;;;;43.75;38.50;;;;;;;2.77;100.00;101021.78;5028750;28;20071;-80
2022/12/08 00:56:33;;;;;;;40.55;36.22;;;;;;;2.73;100.00;101023.66;5027811;28;20045;-80
2022/12/08 00:58:59;;;;;;;42.05;37.33;;;;;;;2.74;100.00;101014.13;5025014;28;20108;-80
2022/12/08 01:01:24;;;;;;;41.88;37.00;;;;;;;2.74;100.00;101008.94;5029523;28;20029;-80
2022/12/08 01:03:50;;;;;;;40.75;36.22;;;;;;;2.74;100.00;101008.94;5033756;28;20030;-80
2022/12/08 01:06:15;;;;;;;43.53;35.28;;;;;;;2.72;100.00;101011.59;5033394;28;20018;-81
2022/12/08 01:08:40;;;;;;;39.80;35.42;;;;;;;2.73;100.00;101017.63;5032138;28;20021;-81
2022/12/08 01:11:09;;;;;;;38.33;34.22;;;;;;;2.72;100.00;101010.75;5033388;28;20090;-81
2022/12/08 01:13:34;;;;;;;36.30;32.30;;;;;;;2.73;100.00;101005.47;5015842;28;20505;-81
2022/12/08 01:15:59;;;;;;;35.15;31.38;;;;;;;2.73;100.00;101008.09;5032109;28;20132;-81
2022/12/08 01:18:28;;;;;;;37.50;30.92;;;;;;;2.75;100.00;101008.88;5026017;28;20068;-81
2022/12/08 01:20:54;;;;;;;35.22;29.52;;;;;;;2.75;100.00;100998.47;5021917;28;20037;-85
2022/12/08 01:23:19;;;;;;;30.42;27.17;;;;;;;2.75;100.00;100998.47;4998591;28;20037;-85
2022/12/08 01:25:45;;;;;;;29.38;26.27;;;;;;;2.77;100.00;100994.06;5012343;28;20032;-81
2022/12/08 01:28:11;;;;;;;31.55;25.17;;;;;;;2.77;100.00;100991.47;5012660;28;20037;-81
2022/12/08 01:30:39;;;;;;;27.75;24.65;;;;;;;2.80;100.00;101003.50;5011993;28;20061;-81
2022/12/08 01:33:05;;;;;;;26.13;23.40;;;;;;;2.81;100.00;101000.00;5011407;28;20557;-81
2022/12/08 01:35:32;;;;;;;25.60;22.90;;;;;;;2.85;100.00;101011.97;5022789;28;20480;-81
2022/12/08 01:37:58;;;;;;;25.63;22.92;;;;;;;2.84;100.00;100999.91;5030867;28;20067;-81
2022/12/08 01:40:23;;;;;;;27.20;22.45;;;;;;;2.88;100.00;100998.84;5021449;28;20071;-81
2022/12/08 01:42:49;;;;;;;23.38;20.98;;;;;;;2.83;100.00;100996.44;5013144;28;20540;-81
2022/12/08 01:45:34;;;;;;;22.13;19.73;;;;;;;2.91;100.00;100998.72;5020078;28;20040;-80
2022/12/08 01:48:07;;;;;;;23.45;20.98;;;;;;;2.86;100.00;100998.06;5014030;28;20567;-80
2022/12/08 01:50:33;;;;;;;24.05;21.35;;;;;;;2.88;100.00;100990.22;5026428;28;20041;-80
2022/12/08 01:53:10;;;;;;;25.25;21.30;;;;;;;2.89;100.00;100990.16;5014880;28;20088;-80
2022/12/08 01:55:46;;;;;;;23.23;20.73;;;;;;;2.90;100.00;100993.59;5012419;28;20026;-80
2022/12/08 01:58:15;;;;;;;24.98;21.10;;;;;;;2.88;100.00;100987.63;5023283;28;20485;-81
2022/12/08 02:00:40;;;;;;;23.98;21.45;;;;;;;2.90;100.00;100983.22;5012551;28;20088;-81
2022/12/08 02:03:11;;;;;;;24.38;21.80;;;;;;;2.88;100.00;100985.88;5014524;28;20029;-81
2022/12/08 02:05:38;;;;;;;24.55;21.45;;;;;;;2.89;100.00;100984.13;5022047;28;20021;-81
2022/12/08 02:08:07;;;;;;;23.02;20.63;;;;;;;2.90;100.00;100983.22;5019860;28;20079;-85
2022/12/08 02:10:36;;;;;;;24.15;20.58;;;;;;;2.89;100.00;100987.56;5042774;28;20044;-80
2022/12/08 02:13:04;;;;;;;23.63;21.08;;;;;;;2.88;100.00;100975.47;5024797;28;20148;-81
2022/12/08 02:15:44;;;;;;;25.25;21.67;;;;;;;2.90;100.00;100973.66;5021890;28;20049;-81
2022/12/08 02:18:28;;;;;;;23.00;20.58;;;;;;;2.93;100.00;100976.13;5006517;28;20421;-81
2022/12/08 02:20:59;;;;;;;26.38;20.77;;;;;;;2.90;100.00;100962.41;5010850;28;20049;-81
2022/12/08 02:23:46;;;;;;;27.23;20.50;;;;;;;2.89;100.00;100966.78;5011951;28;20549;-81
2022/12/08 02:26:50;;;;;;;20.98;18.83;;;;;;;2.91;100.00;100964.97;5013107;28;20022;-82
2022/12/08 02:29:50;;;;;;;19.95;17.90;;;;;;;2.89;100.00;100956.38;5020064;28;20061;-85
2022/12/08 02:32:37;;;;;;;18.90;16.90;;;;;;;2.89;100.00;100961.56;5013398;28;20474;-81
2022/12/08 02:35:35;;;;;;;19.75;17.08;;;;;;;2.89;100.00;100951.19;5013433;28;20474;-82
2022/12/08 02:38:07;;;;;;;18.23;16.30;;;;;;;2.86;100.00;100946.13;5030343;28;20041;-86
2022/12/08 02:40:38;;;;;;;20.40;15.98;;;;;;;2.86;100.00;100943.50;5012570;28;20052;-81
2022/12/08 02:43:13;;;;;;;16.08;14.38;;;;;;;2.87;100.00;100936.56;5012048;28;20084;-81
2022/12/08 02:45:46;;;;;;;18.33;14.55;;;;;;;2.85;100.00;100934.03;5012150;28;20030;-85
2022/12/08 02:48:11;;;;;;;;;;;;;;;2.95;100.00;100937.09;5023936;28;20025;-81
2022/12/08 02:50:37;;;;;;;15.00;13.27;;;;;;;2.89;100.00;100934.75;5021265;28;20379;-81
2022/12/08 02:53:05;;;;;;;16.00;13.70;;;;;;;2.89;100.00;100934.75;5011816;28;20493;-81
2022/12/08 02:55:52;;;;;;;15.57;13.95;;;;;;;2.91;100.00;100925.13;5010610;28;20459;-81
2022/12/08 02:58:34;;;;;;;15.40;13.85;;;;;;;2.90;100.00;100926.88;5010765;28;20104;-81
2022/12/08 03:01:23;;;;;;;15.70;13.75;;;;;;;2.92;100.00;100914.69;5022165;28;20029;-81
2022/12/08 03:04:23;;;;;;;16.30;14.10;;;;;;;2.94;100.00;100907.66;5029000;28;20029;-81
2022/12/08 03:07:08;;;;;;;20.63;15.07;;;;;;;2.92;100.00;100914.69;5028042;28;20065;-85
2022/12/08 03:09:37;;;;;;;17.23;15.02;;;;;;;2.92;100.00;100914.69;5044376;28;20037;-85
2022/12/08 03:12:25;;;;;;;17.80;15.15;;;;;;;2.93;100.00;100911.16;5029946;28;20167;-84
2022/12/08 03:14:54;;;;;;;17.88;15.65;;;;;;;2.89;100.00;100912.19;5025657;28;20033;-84
2022/12/08 03:17:23;;;;;;;17.98;16.08;;;;;;;2.91;100.00;100912.13;5012503;28;20630;-80
2022/12/08 03:19:49;;;;;;;19.05;17.08;;;;;;;2.92;100.00;100912.06;5029883;28;20033;-81
2022/12/08 03:22:21;;;;;;;19.33;17.30;;;;;;;2.91;100.00;100899.16;5025919;28;20409;-81
2022/12/08 03:24:47;;;;;;;19.73;17.65;;;;;;;2.92;100.00;100904.28;5020587;28;20059;-81
2022/12/08 03:27:18;;;;;;;20.75;18.58;;;;;;;2.94;100.00;100905.06;5030755;28;20018;-81
2022/12/08 03:29:49;;;;;;;23.73;19.60;;;;;;;2.95;100.00;100892.91;5011736;28;20494;-80
2022/12/08 03:32:56;;;;;;;23.63;21.20;;;;;;;2.99;100.00;100899.66;5030530;28;20025;-84
2022/12/08 03:35:25;;;;;;;27.13;23.05;;;;;;;2.96;100.00;100892.00;5010472;28;20030;-85
2022/12/08 03:37:51;;;;;;;32.45;26.55;;;;;;;2.96;100.00;100895.44;5030373;28;20026;-81
2022/12/08 03:40:19;;;;;;;32.00;28.52;;;;;;;2.95;100.00;100882.50;4999318;28;20084;-83
2022/12/08 03:42:44;;;;;;;38.60;33.97;;;;;;;2.96;100.00;100882.44;5013805;28;20064;-82
2022/12/08 03:45:10;;;;;;;45.42;36.83;;;;;;;3.00;100.00;100884.00;5027461;28;20160;-81
2022/12/08 03:47:35;;;;;;;42.03;37.08;;;;;;;2.98;100.00;100875.44;5012097;28;20033;-81
2022/12/08 03:50:01;;;;;;;46.95;39.67;;;;;;;3.01;100.00;100877.06;5011206;28;20031;-81
2022/12/08 03:52:26;;;;;;;47.63;40.50;;;;;;;3.03;100.00;100870.88;5014202;28;20088;-82
2022/12/08 03:54:52;;;;;;;50.83;41.95;;;;;;;3.03;100.00;100870.88;5012442;28;20178;-84
2022/12/08 03:57:17;;;;;;;55.75;44.70;;;;;;;3.05;100.00;100865.63;5027197;28;20060;-84
2022/12/08 03:59:43;;;;;;;55.90;45.55;;;;;;;3.05;100.00;100871.66;5010869;28;20072;-84
2022/12/08 04:02:08;;;;;;;57.63;46.05;;;;;;;3.06;100.00;100865.56;5027670;28;20044;-82
2022/12/08 04:04:33;;;;;;;56.40;45.17;;;;;;;3.06;100.00;100862.09;5013457;28;20638;-82
2022/12/08 04:06:59;;;;;;;56.75;46.85;;;;;;;3.05;100.00;100858.66;5009416;28;20049;-82
2022/12/08 04:09:24;;;;;;;59.60;46.88;;;;;;;3.06;100.00;100856.91;5014885;28;20077;-84
2022/12/08 04:11:49;;;;;;;56.78;46.55;;;;;;;3.03;100.00;100855.28;5026930;28;20029;-84
2022/12/08 04:14:15;;;;;;;54.20;45.65;;;;;;;3.06;100.00;100856.91;5022448;28;20105;-83
2022/12/08 04:16:40;;;;;;;52.28;44.08;;;;;;;3.07;100.00;100862.03;5020125;28;20026;-83
2022/12/08 04:19:06;;;;;;;52.85;42.80;;;;;;;3.06;100.00;100854.31;5008051;28;20026;-81
2022/12/08 04:21:31;;;;;;;50.00;41.88;;;;;;;3.05;100.00;100863.03;5010008;28;20076;-82
2022/12/08 04:23:56;;;;;;;46.55;38.40;;;;;;;3.06;100.00;100857.75;5010489;28;20264;-82
2022/12/08 04:26:22;;;;;;;47.78;39.25;;;;;;;3.05;100.00;100852.63;5009037;28;20072;-82
2022/12/08 04:28:47;;;;;;;42.30;35.28;;;;;;;3.05;100.00;100848.28;5018176;28;20052;-82
2022/12/08 04:31:13;;;;;;;39.95;33.40;;;;;;;3.05;100.00;100840.47;5020458;28;20068;-83
2022/12/08 04:33:38;;;;;;;35.97;31.85;;;;;;;3.05;100.00;100847.44;5009574;28;20057;-84
2022/12/08 04:36:05;;;;;;;33.22;29.63;;;;;;;3.04;100.00;100841.38;5012692;28;20112;-83
2022/12/08 04:38:30;;;;;;;36.05;29.80;;;;;;;3.04;100.00;100846.59;5022569;28;20493;-83
2022/12/08 04:40:56;;;;;;;31.75;28.35;;;;;;;3.05;100.00;100834.44;5019964;28;20037;-83
2022/12/08 04:43:21;;;;;;;29.75;26.10;;;;;;;3.04;100.00;100830.13;5025967;28;20029;-84
2022/12/08 04:45:46;;;;;;;30.83;25.50;;;;;;;3.02;100.00;100827.59;5006267;28;20024;-84
2022/12/08 04:48:12;;;;;;;27.65;23.95;;;;;;;3.01;100.00;100805.13;5019043;28;20021;-84
2022/12/08 04:50:40;;;;;;;24.10;21.50;;;;;;;3.03;100.00;100813.72;5028540;28;20386;-84
2022/12/08 04:53:07;;;;;;;22.50;19.98;;;;;;;3.02;100.00;100826.75;5028417;28;20022;-83
2022/12/08 04:55:32;;;;;;;23.00;18.95;;;;;;;3.00;100.00;100833.78;5011876;28;20030;-83
2022/12/08 04:57:57;;;;;;;21.13;17.00;;;;;;;3.00;100.00;100824.22;5009615;28;20029;-83
2022/12/08 05:00:23;;;;;;;12.85;10.68;;;;;;;2.98;100.00;100815.66;5022976;28;20033;-82
2022/12/08 05:02:48;;;;;;;11.65;9.10;;;;;;;2.97;100.00;100811.38;5025353;28;20398;-83
2022/12/08 05:05:14;;;;;;;12.75;10.13;;;;;;;2.98;100.00;100825.22;4992052;28;20029;-82
2022/12/08 05:07:39;;;;;;;10.00;8.18;;;;;;;2.97;100.00;100819.16;5013443;28;20033;-82
2022/12/08 05:10:05;;;;;;;8.57;6.75;;;;;;;2.93;100.00;100825.41;5028071;28;20662;-83
2022/12/08 05:12:31;;;;;;;10.73;6.53;;;;;;;2.94;100.00;100823.66;5029021;28;20113;-82
2022/12/08 05:14:56;;;;;;;9.98;6.20;;;;;;;2.95;100.00;100826.19;5017639;28;20104;-83
2022/12/08 05:17:21;;;;;;;8.38;6.40;;;;;;;2.95;100.00;100828.78;5007248;28;20570;-82
2022/12/08 05:19:47;;;;;;;7.45;6.05;;;;;;;2.94;100.00;100824.50;5008914;28;20105;-83
2022/12/08 05:22:12;;;;;;;7.28;6.53;;;;;;;2.92;100.00;100818.53;5021041;28;20048;-83
2022/12/08 05:24:37;;;;;;;9.48;7.93;;;;;;;2.91;100.00;100819.44;5023840;28;20497;-83
2022/12/08 05:27:03;;;;;;;10.20;7.85;;;;;;;2.92;100.00;100815.09;5011954;28;20077;-82
2022/12/08 05:29:28;;;;;;;9.60;8.43;;;;;;;2.91;100.00;100816.84;5005740;28;20042;-82
2022/12/08 05:31:54;;;;;;;9.30;8.40;;;;;;;2.91;100.00;100813.41;5009602;28;20113;-82
2022/12/08 05:34:19;;;;;;;10.02;8.50;;;;;;;2.93;100.00;100814.19;5025553;28;20057;-82
2022/12/08 05:36:45;;;;;;;10.20;7.65;;;;;;;2.92;100.00;100815.09;5029198;28;20030;-82
2022/12/08 05:39:13;;;;;;;8.45;6.60;;;;;;;2.91;100.00;100824.63;5020946;28;20030;-83
2022/12/08 05:41:39;;;;;;;8.18;7.30;;;;;;;2.90;100.00;100812.56;5013401;28;20037;-83
2022/12/08 05:44:05;;;;;;;7.63;5.22;;;;;;;2.91;100.00;100829.00;5008825;28;20126;-83
2022/12/08 05:46:31;;;;;;;6.25;3.75;;;;;;;2.87;100.00;100817.88;5009301;28;20454;-82
2022/12/08 05:48:58;;;;;;;8.38;3.58;;;;;;;2.84;100.00;100818.00;5024660;28;20037;-82
2022/12/08 05:51:24;;;;;;;7.57;3.10;;;;;;;2.81;100.00;100819.00;5031927;28;20021;-83
2022/12/08 05:53:51;;;;;;;8.23;3.20;;;;;;;2.80;100.00;100819.03;5023621;28;20535;-83
2022/12/08 05:56:17;;;;;;;6.55;3.70;;;;;;;2.82;100.00;100815.47;5016648;28;20029;-83
2022/12/08 05:58:43;;;;;;;8.07;3.95;;;;;;;2.83;100.00;100809.38;5013129;28;20033;-83
2022/12/08 06:01:26;;;;;;;6.13;3.55;;;;;;;2.85;100.00;100809.31;5014208;28;20017;-83
2022/12/08 06:03:52;;;;;;;6.22;3.42;;;;;;;2.80;100.00;100811.22;5014755;28;20029;-83
2022/12/08 06:06:21;;;;;;;5.97;3.47;;;;;;;2.85;100.00;100811.91;5032277;28;20036;-83
2022/12/08 06:08:46;;;;;;;5.85;3.38;;;;;;;2.82;100.00;100804.25;5029307;28;20034;-82
2022/12/08 06:11:20;;;;;;;5.28;3.30;;;;;;;2.83;100.00;100798.16;5013493;28;20032;-83
2022/12/08 06:13:46;;;;;;;6.25;3.60;;;;;;;2.80;100.00;100796.53;5012344;28;20585;-83
2022/12/08 06:16:11;;;;;;;7.18;3.78;;;;;;;2.81;100.00;100790.41;5024582;28;20033;-84
2022/12/08 06:18:37;;;;;;;9.90;3.83;;;;;;;2.81;100.00;100792.16;5030763;28;20022;-84
2022/12/08 06:21:07;;;;;;;9.90;3.38;;;;;;;2.78;100.00;100787.91;5009167;28;20105;-82
2022/12/08 06:23:33;;;;;;;5.93;3.33;;;;;;;2.83;100.00;100805.94;5012173;28;20064;-83
2022/12/08 06:26:04;;;;;;;7.35;3.72;;;;;;;2.84;100.00;100792.03;5012480;28;20064;-83
2022/12/08 06:28:31;;;;;;;7.05;3.78;;;;;;;2.87;100.00;100791.91;5008286;28;20042;-83
2022/12/08 06:30:56;;;;;;;5.22;3.97;;;;;;;2.87;100.00;100793.66;5022720;28;20037;-84
2022/12/08 06:33:22;;;;;;;5.97;4.28;;;;;;;2.87;100.00;100797.09;5013642;28;20338;-84
2022/12/08 06:35:47;;;;;;;9.13;4.60;;;;;;;2.86;100.00;100795.41;5026055;28;20053;-82
2022/12/08 06:38:13;;;;;;;6.20;4.80;;;;;;;2.86;100.00;100803.22;5022575;28;20474;-84
2022/12/08 06:40:38;;;;;;;7.32;4.63;;;;;;;2.89;100.00;100802.22;5011283;28;20583;-83
2022/12/08 06:43:04;;;;;;;6.75;4.20;;;;;;;2.90;100.00;100804.75;5019928;28;20029;-83
2022/12/08 06:45:29;;;;;;;8.80;3.70;;;;;;;2.87;100.00;100804.88;5023965;28;20025;-83
2022/12/08 06:47:54;;;;;;;5.38;3.70;;;;;;;2.86;100.00;100798.00;5014967;28;20030;-84
2022/12/08 06:50:20;;;;;;;8.10;4.60;;;;;;;2.88;100.00;100801.38;5011739;28;20026;-84
2022/12/08 06:52:45;;;;;;;7.97;4.60;;;;;;;2.84;100.00;100792.03;5010122;28;20065;-84
2022/12/08 06:55:11;;;;;;;7.47;4.65;;;;;;;2.86;100.00;100800.59;5013084;28;20437;-83
2022/12/08 06:57:36;;;;;;;6.32;4.25;;;;;;;2.84;100.00;100794.63;5003359;28;20048;-82
2022/12/08 07:00:07;;;;;;;6.28;4.70;;;;;;;2.87;100.00;100802.28;5029691;28;20108;-82
2022/12/08 07:02:32;;;;;;;11.55;5.05;;;;;;;2.88;100.00;100791.00;5007635;28;20026;-84
2022/12/08 07:04:58;;;;;;;8.63;4.90;;;;;;;2.90;100.00;100786.56;5013527;28;20032;-84
2022/12/08 07:07:23;;;;;;;7.60;6.80;;;;;;;2.88;100.00;100788.38;5031302;28;20163;-83
2022/12/08 07:09:49;;;;;;;9.13;7.13;;;;;;;2.91;100.00;100785.66;5025484;28;20037;-82
2022/12/08 07:12:14;;;;;;;13.43;7.85;;;;;;;2.94;100.00;100792.47;5028124;28;20029;-84
2022/12/08 07:14:40;;;;;;;12.27;8.90;;;;;;;2.91;100.00;100793.44;5013303;28;20053;-83
2022/12/08 07:17:08;;;;;;;10.90;9.85;;;;;;;2.93;100.00;100803.78;5031010;28;20018;-83
2022/12/08 07:19:33;;;;;;;17.40;15.50;;;;;;;2.92;100.00;100795.13;5029401;28;20037;-84
2022/12/08 07:21:58;;;;;;;26.55;17.65;;;;;;;2.93;100.00;100796.81;5020596;28;20343;-83
2022/12/08 07:24:24;;;;;;;25.10;20.08;;;;;;;2.91;100.00;100788.25;5011696;28;20097;-83
2022/12/08 07:26:49;;;;;;;30.40;26.55;;;;;;;2.96;100.00;100799.28;5029904;28;20025;-83
2022/12/08 07:29:14;;;;;;;31.05;27.95;;;;;;;2.94;100.00;100798.53;5030023;28;20136;-83
2022/12/08 07:31:43;;;;;;;34.38;30.73;;;;;;;2.95;100.00;100802.81;5031406;28;20048;-83
2022/12/08 07:34:11;;;;;;;37.72;33.50;;;;;;;2.96;100.00;100801.03;5013313;28;20033;-82
2022/12/08 07:36:37;;;;;;;39.55;35.33;;;;;;;2.92;100.00;100792.53;5012377;28;20048;-82
2022/12/08 07:39:05;;;;;;;45.03;38.20;;;;;;;2.90;100.00;100804.75;5013005;28;20470;-83
2022/12/08 07:41:34;;;;;;;41.05;36.65;;;;;;;2.88;100.00;100792.75;5013485;28;20044;-83
2022/12/08 07:43:59;;;;;;;41.90;36.85;;;;;;;2.87;100.00;100794.50;5030225;28;20029;-82
2022/12/08 07:46:25;;;;;;;42.65;35.13;;;;;;;2.90;100.00;100796.13;5030732;28;20029;-82
2022/12/08 07:48:52;;;;;;;40.03;35.80;;;;;;;2.89;100.00;100794.44;5030291;28;20065;-83
2022/12/08 07:51:19;;;;;;;39.85;35.58;;;;;;;2.91;100.00;100798.66;5024601;28;20029;-83
2022/12/08 07:53:48;;;;;;;41.78;35.80;;;;;;;2.91;100.00;100798.66;5021963;28;20016;-83
2022/12/08 07:56:14;;;;;;;40.75;36.65;;;;;;;2.91;100.00;100806.44;5014773;28;20033;-83
2022/12/08 07:58:40;;;;;;;44.70;38.45;;;;;;;2.88;100.00;100798.78;5012018;28;20486;-82
2022/12/08 08:01:06;;;;;;;44.50;39.83;;;;;;;2.87;100.00;100797.09;5009086;28;20124;-83
2022/12/08 08:03:32;;;;;;;42.75;36.88;;;;;;;2.87;100.00;100804.06;5034588;28;20033;-83
2022/12/08 08:06:04;;;;;;;39.33;34.72;;;;;;;2.82;100.00;100804.25;5028649;28;20536;-83
2022/12/08 08:08:33;;;;;;;31.05;27.80;;;;;;;2.83;100.00;100805.94;5026817;28;20029;-82
2022/12/08 08:11:07;;;;;;;30.77;27.17;;;;;;;2.79;100.00;100806.94;5016247;28;20541;-82
2022/12/08 08:13:32;;;;;;;30.83;27.55;;;;;;;2.82;100.00;100804.25;5029576;28;20037;-82
2022/12/08 08:16:05;;;;;;;27.08;24.35;;;;;;;2.84;100.00;100812.81;5026457;28;20032;-81
2022/12/08 08:18:32;;;;;;;25.92;23.33;;;;;;;2.79;100.00;100809.53;5028815;28;20041;-83
2022/12/08 08:20:57;;;;;;;24.77;22.38;;;;;;;2.78;100.00;100798.31;5006283;28;20425;-83
2022/12/08 08:23:23;;;;;;;24.83;22.13;;;;;;;2.81;100.00;100797.38;5016654;28;20021;-82
2022/12/08 08:25:48;;;;;;;23.02;20.58;;;;;;;2.80;100.00;100811.22;5026646;28;20049;-83
2022/12/08 08:28:14;;;;;;;24.65;19.67;;;;;;;2.83;100.00;100805.94;5022680;28;20041;-83
2022/12/08 08:30:40;;;;;;;21.77;18.67;;;;;;;2.86;100.00;100815.34;5018772;28;20048;-83
2022/12/08 08:33:05;;;;;;;21.23;19.02;;;;;;;2.89;100.00;100812.63;5014645;28;20712;-82
2022/12/08 08:35:32;;;;;;;20.70;18.42;;;;;;;2.88;100.00;100814.38;5029613;28;20029;-76
2022/12/08 08:37:58;;;;;;;23.58;19.65;;;;;;;2.91;100.00;100803.84;5023694;28;20037;-78
2022/12/08 08:40:23;;;;;;;15.65;13.75;;;;;;;2.89;100.00;100803.06;5010887;28;20116;-85
2022/12/08 08:42:49;;;;;;;14.40;12.90;;;;;;;2.89;100.00;100803.06;5029566;28;20021;-86
2022/12/08 08:45:14;;;;;;;15.60;14.07;;;;;;;2.90;100.00;100796.13;5029045;28;20038;-86
2022/12/08 08:47:39;;;;;;;20.17;15.90;;;;;;;2.96;100.00;100804.50;5029561;28;20068;-86
2022/12/08 08:50:05;;;;;;;27.42;22.52;;;;;;;2.96;100.00;100796.69;5011944;28;20509;-86
2022/12/08 08:52:31;;;;;;;30.77;26.70;;;;;;;2.99;100.00;100796.56;5025723;28;20078;-85
2022/12/08 08:54:56;;;;;;;33.20;29.85;;;;;;;2.96;100.00;100796.69;5030243;28;20112;-81
2022/12/08 08:57:21;;;;;;;38.33;30.52;;;;;;;3.01;100.00;100799.94;5029739;28;20181;-81
2022/12/08 08:59:47;;;;;;;33.88;30.08;;;;;;;3.06;100.00;100803.19;5029299;28;20070;-81
2022/12/08 09:02:16;;;;;;;36.67;30.70;;;;;;;3.07;100.00;100804.84;5012184;28;20502;-81
2022/12/08 09:04:41;;;;;;;34.05;30.25;;;;;;;3.04;100.00;100799.78;5029968;28;20026;-82
2022/12/08 09:07:07;;;;;;;32.88;28.13;;;;;;;3.04;100.00;100794.59;5029425;28;20078;-81
2022/12/08 09:09:32;;;;;;;30.83;27.58;;;;;;;3.04;100.00;100789.41;5027877;28;20033;-81
2022/12/08 09:11:57;;;;;;;33.83;27.63;;;;;;;3.05;100.00;100795.44;5007447;28;20036;-81
2022/12/08 09:14:23;;;;;;;30.88;27.70;;;;;;;3.06;100.00;100792.78;5027173;28;20032;-80
2022/12/08 09:16:51;;;;;;;30.63;27.35;;;;;;;3.07;100.00;100789.25;5029076;28;20022;-81
2022/12/08 09:19:16;;;;;;;32.58;29.17;;;;;;;3.08;100.00;100793.56;5029439;28;20125;-82
2022/12/08 09:21:42;;;;;;;32.38;29.02;;;;;;;3.11;100.00;100796.00;5029260;28;20472;-81
2022/12/08 09:24:14;;;;;;;30.85;27.27;;;;;;;3.12;100.00;100787.31;5033908;28;20029;-82
2022/12/08 09:26:40;;;;;;;28.30;25.40;;;;;;;3.11;100.00;100785.63;5033205;28;20112;-82
2022/12/08 09:29:06;;;;;;;26.08;21.67;;;;;;;3.20;100.00;100788.72;5032728;28;20053;-82
2022/12/08 09:31:31;;;;;;;22.10;17.88;;;;;;;3.24;100.00;100785.94;5033466;28;20034;-83
2022/12/08 09:33:56;;;;;;;20.15;16.90;;;;;;;3.22;100.00;100786.94;5015547;28;20060;-81
2022/12/08 09:36:22;;;;;;;19.77;17.67;;;;;;;3.22;100.00;100782.56;5031127;28;20030;-81
2022/12/08 09:38:49;;;;;;;19.42;17.25;;;;;;;3.25;100.00;100784.19;4997101;28;20068;-81
2022/12/08 09:41:39;;;;;;;19.35;17.17;;;;;;;3.30;100.00;100790.00;5025263;28;20033;-82
2022/12/08 09:44:25;;;;;;;22.48;19.55;;;;;;;3.42;100.00;100789.47;5034923;28;20025;-81
2022/12/08 09:46:52;;;;;;;29.88;26.73;;;;;;;3.36;100.00;100789.75;5020775;28;20397;-81
2022/12/08 09:49:22;;;;;;;34.58;30.83;;;;;;;3.41;100.00;100790.38;5032556;28;20029;-82
2022/12/08 09:51:51;;;;;;;41.92;37.60;;;;;;;3.40;100.00;100783.47;5015172;28;20410;-81
2022/12/08 09:54:23;;;;;;;46.25;41.42;;;;;;;3.43;100.00;100783.34;5027679;28;20056;-81
2022/12/08 09:56:52;;;;;;;49.38;43.80;;;;;;;3.51;100.00;100782.97;5029912;28;20029;-82
2022/12/08 09:59:28;;;;;;;49.78;44.03;;;;;;;3.51;100.00;100782.97;5007446;28;20029;-81
2022/12/08 10:01:54;;;;;;;51.70;44.00;;;;;;;3.48;100.00;100778.78;5033492;28;20108;-81
2022/12/08 10:04:36;;;;;;;50.90;45.42;;;;;;;3.46;100.00;100783.19;5014162;28;20175;-81
2022/12/08 10:07:19;;;;;;;53.53;46.13;;;;;;;3.46;100.00;100785.81;5033259;28;20049;-82
2022/12/08 10:10:01;;;;;;;54.40;44.08;;;;;;;3.39;100.00;100776.59;5030141;28;20120;-81
2022/12/08 10:12:29;;;;;;;48.67;43.10;;;;;;;3.37;100.00;100781.03;5031475;28;20037;-83
2022/12/08 10:15:09;;;;;;;51.75;44.30;;;;;;;3.31;100.00;100776.09;5015302;28;20034;-82
2022/12/08 10:17:39;;;;;;;49.08;42.15;;;;;;;3.28;100.00;100771.03;5030705;28;20033;-82
2022/12/08 10:20:16;;;;;;;49.65;43.97;;;;;;;3.30;100.00;100769.22;5012809;28;20049;-82
2022/12/08 10:22:42;;;;;;;48.15;42.22;;;;;;;3.29;100.00;100767.53;5030999;28;20453;-82
2022/12/08 10:25:17;;;;;;;56.13;43.50;;;;;;;3.31;100.00;100770.91;5027989;28;20509;-81
2022/12/08 10:27:43;;;;;;;47.10;41.33;;;;;;;3.30;100.00;100764.84;5030684;28;20104;-81
2022/12/08 10:30:17;;;;;;;46.72;39.00;;;;;;;3.31;100.00;100761.34;5030914;28;20487;-81
2022/12/08 10:32:51;;;;;;;44.63;35.83;;;;;;;3.27;100.00;100761.56;5018498;28;20033;-82
2022/12/08 10:35:21;;;;;;;38.85;32.95;;;;;;;3.25;100.00;100760.78;5032745;28;20088;-82
2022/12/08 10:37:58;;;;;;;40.50;32.05;;;;;;;3.25;100.00;100759.03;5031754;28;20022;-82
2022/12/08 10:40:27;;;;;;;36.95;29.85;;;;;;;3.20;100.00;100757.53;5036756;28;20029;-82
2022/12/08 10:42:56;;;;;;;38.47;29.50;;;;;;;3.17;100.00;100762.84;5031547;28;20033;-83
2022/12/08 10:45:40;;;;;;;33.78;27.95;;;;;;;3.20;100.00;100760.13;5006280;28;20095;-82
2022/12/08 10:48:13;;;;;;;35.42;28.38;;;;;;;3.18;100.00;100761.94;5021922;28;20057;-82
2022/12/08 10:50:44;;;;;;;35.45;28.65;;;;;;;3.11;100.00;100759.63;5026514;28;20040;-81
2022/12/08 10:53:28;;;;;;;32.78;27.60;;;;;;;3.15;100.00;100757.72;5028190;28;20079;-83
2022/12/08 10:56:07;;;;;;;34.08;26.98;;;;;;;3.17;100.00;100765.47;5031623;28;20037;-82
2022/12/08 10:58:35;;;;;;;32.80;27.45;;;;;;;3.15;100.00;100760.31;5021272;28;20406;-82
2022/12/08 11:01:13;;;;;;;34.30;25.77;;;;;;;3.11;100.00;100770.03;5021417;28;20026;-82
2022/12/08 11:03:46;;;;;;;29.45;25.58;;;;;;;3.11;100.00;100763.97;5012212;28;20529;-82
2022/12/08 11:06:17;;;;;;;28.98;25.00;;;;;;;3.08;100.00;100758.91;5030870;28;20079;-81
2022/12/08 11:09:05;;;;;;;31.73;25.05;;;;;;;3.09;100.00;100750.22;5028697;28;20030;-82
2022/12/08 11:11:44;;;;;;;34.60;27.02;;;;;;;3.09;100.00;100751.06;5031711;28;20116;-82
2022/12/08 11:14:19;;;;;;;28.02;22.88;;;;;;;3.01;100.00;100755.75;4993703;28;20530;-81
2022/12/08 11:16:45;;;;;;;25.73;23.02;;;;;;;2.96;100.00;100749.06;5027969;28;20116;-83
2022/12/08 11:19:15;;;;;;;33.65;25.15;;;;;;;2.95;100.00;100742.19;5031014;28;20604;-81
2022/12/08 11:21:41;;;;;;;29.42;26.02;;;;;;;2.95;100.00;100742.19;5030702;28;20033;-81
2022/12/08 11:24:13;;;;;;;30.35;27.00;;;;;;;2.99;100.00;100735.94;5032195;28;20017;-83
2022/12/08 11:26:40;;;;;;;31.83;28.27;;;;;;;2.93;100.00;100729.28;5013423;28;20831;-81